Time;durP1;ratioP1;P1;durP2;ratioP2;P2;SDS_P1;SDS_P2;PMS_P1;PMS_P2;Temp;Humidity;BMP_temperature;BMP_pressure;BME280_temperature;BME280_humidity;BME280_pressure;Samples;Min_cycle;Max_cycle;Signal;HPM_P1;HPM_P2
2022/06/05 00:03:00;;;;;;;7.82;4.57;;;17.70;99.90;;;;;;5022480;28;20329;-71
2022/06/05 00:06:04;;;;;;;7.13;5.20;;;17.70;99.90;;;;;;5022406;28;20240;-72
2022/06/05 00:09:04;;;;;;;7.70;5.00;;;17.70;99.90;;;;;;5034429;28;20237;-72
2022/06/05 00:11:59;;;;;;;9.15;4.60;;;17.60;99.90;;;;;;5023441;28;20217;-73
2022/06/05 00:14:53;;;;;;;5.03;4.47;;;17.50;99.90;;;;;;5019094;28;20241;-72
2022/06/05 00:17:41;;;;;;;6.53;4.90;;;17.40;99.90;;;;;;5022155;28;20222;-72
2022/06/05 00:20:31;;;;;;;5.13;4.63;;;17.40;99.90;;;;;;5002487;28;20241;-72
2022/06/05 00:23:20;;;;;;;6.85;4.53;;;17.30;99.90;;;;;;5031097;28;20218;-72
2022/06/05 00:26:27;;;;;;;6.95;4.70;;;17.30;99.90;;;;;;5022389;28;20230;-71
2022/06/05 00:29:31;;;;;;;7.10;4.78;;;17.30;99.90;;;;;;5014766;28;20220;-72
2022/06/05 00:32:28;;;;;;;6.22;4.88;;;17.10;99.90;;;;;;5024900;28;20217;-72
2022/06/05 00:35:21;;;;;;;8.27;4.97;;;17.20;99.90;;;;;;4988539;28;20752;-73
2022/06/05 00:38:16;;;;;;;6.50;4.78;;;17.10;99.90;;;;;;5014265;28;20268;-71
2022/06/05 00:41:27;;;;;;;6.25;4.50;;;17.10;99.90;;;;;;5019683;28;20229;-71
2022/06/05 00:44:20;;;;;;;5.25;4.15;;;17.00;99.90;;;;;;5016002;28;20807;-71
2022/06/05 00:47:12;;;;;;;5.80;4.40;;;16.90;99.90;;;;;;5016523;28;20220;-71
2022/06/05 00:50:09;;;;;;;7.63;4.45;;;16.90;99.90;;;;;;5017715;28;20287;-73
2022/06/05 00:53:01;;;;;;;5.90;4.10;;;16.90;99.90;;;;;;5014782;28;20222;-73
2022/06/05 00:55:52;;;;;;;6.47;4.40;;;16.80;99.90;;;;;;5026884;28;20232;-71
2022/06/05 00:58:42;;;;;;;7.28;4.65;;;16.70;99.90;;;;;;5021520;28;20233;-74
2022/06/05 01:01:32;;;;;;;5.75;4.40;;;16.70;99.90;;;;;;5019320;28;20257;-71
2022/06/05 01:04:21;;;;;;;6.18;4.72;;;16.60;99.90;;;;;;5022033;28;20225;-73
2022/06/05 01:07:12;;;;;;;6.43;4.68;;;16.60;99.90;;;;;;5017112;28;20232;-71
2022/06/05 01:10:04;;;;;;;7.05;4.32;;;16.60;99.90;;;;;;5019137;28;20232;-72
2022/06/05 01:13:00;;;;;;;6.47;4.50;;;16.70;99.90;;;;;;5005217;28;20328;-75
2022/06/05 01:15:56;;;;;;;6.45;4.53;;;16.60;99.90;;;;;;5031273;28;20222;-72
2022/06/05 01:18:54;;;;;;;6.13;4.60;;;16.60;99.90;;;;;;5033768;28;20248;-72
2022/06/05 01:22:11;;;;;;;6.80;4.90;;;16.60;99.90;;;;;;5020392;28;20224;-73
2022/06/05 01:25:15;;;;;;;6.35;4.90;;;16.50;99.90;;;;;;5017450;28;20236;-74
2022/06/05 01:28:09;;;;;;;6.47;5.10;;;16.30;99.90;;;;;;5006524;28;20221;-73
2022/06/05 01:31:04;;;;;;;7.72;5.15;;;16.40;99.90;;;;;;5011628;28;20229;-73
2022/06/05 01:33:58;;;;;;;9.60;5.35;;;16.30;99.90;;;;;;5019995;28;20236;-74
2022/06/05 01:36:53;;;;;;;10.50;5.28;;;16.20;99.90;;;;;;5017867;28;20226;-72
2022/06/05 01:39:47;;;;;;;7.32;5.47;;;16.30;99.90;;;;;;5015623;28;20318;-73
2022/06/05 01:42:39;;;;;;;8.95;4.95;;;16.30;99.90;;;;;;5029522;28;20245;-70
2022/06/05 01:45:36;;;;;;;6.20;5.38;;;16.20;99.90;;;;;;5019775;28;20239;-73
2022/06/05 01:48:29;;;;;;;7.55;5.07;;;16.30;99.90;;;;;;5017825;28;20739;-73
2022/06/05 01:51:23;;;;;;;8.10;4.85;;;16.20;99.90;;;;;;5012091;28;20226;-74
2022/06/05 01:54:17;;;;;;;6.03;4.80;;;16.20;99.90;;;;;;5018046;28;20236;-73
2022/06/05 01:57:08;;;;;;;6.10;4.72;;;16.20;99.90;;;;;;5019217;28;20217;-73
2022/06/05 02:00:04;;;;;;;7.38;4.55;;;16.00;99.90;;;;;;5018159;28;20225;-72
2022/06/05 02:03:01;;;;;;;8.52;4.78;;;16.00;99.90;;;;;;5018280;28;20744;-73
2022/06/05 02:05:54;;;;;;;6.28;4.82;;;16.00;99.90;;;;;;5026870;28;20228;-72
2022/06/05 02:08:46;;;;;;;7.43;4.13;;;15.90;99.90;;;;;;5007532;28;20270;-74
2022/06/05 02:11:35;;;;;;;6.40;4.25;;;15.90;99.90;;;;;;5018180;28;20221;-71
2022/06/05 02:14:24;;;;;;;4.40;4.00;;;15.80;99.90;;;;;;5016074;28;20218;-72
2022/06/05 02:17:13;;;;;;;7.55;4.20;;;15.70;99.90;;;;;;5019334;28;20222;-72
2022/06/05 02:20:04;;;;;;;7.57;4.28;;;15.70;99.90;;;;;;5016898;28;20241;-73
2022/06/05 02:22:54;;;;;;;7.28;4.15;;;15.80;99.90;;;;;;5029588;28;20233;-71
2022/06/05 02:25:43;;;;;;;7.53;4.50;;;15.70;99.90;;;;;;5015279;28;20229;-72
2022/06/05 02:28:32;;;;;;;8.68;4.28;;;15.70;99.90;;;;;;5020742;28;20239;-71
2022/06/05 02:31:34;;;;;;;7.30;4.57;;;15.70;99.90;;;;;;5017345;28;20519;-72
2022/06/05 02:34:34;;;;;;;6.65;4.65;;;15.70;99.90;;;;;;5015718;28;20348;-72
2022/06/05 02:37:34;;;;;;;4.45;4.00;;;15.60;99.90;;;;;;5015117;28;20229;-71
2022/06/05 02:40:31;;;;;;;6.47;4.32;;;15.50;99.90;;;;;;5017124;28;20228;-71
2022/06/05 02:43:28;;;;;;;6.30;4.80;;;15.40;99.90;;;;;;5015181;28;20213;-72
2022/06/05 02:46:26;;;;;;;6.68;5.00;;;15.40;99.90;;;;;;5020634;28;20282;-72
2022/06/05 02:49:23;;;;;;;6.22;4.78;;;15.60;99.90;;;;;;5025348;28;20703;-70
2022/06/05 02:52:12;;;;;;;5.70;4.32;;;15.60;99.90;;;;;;5028932;28;20320;-72
2022/06/05 02:55:06;;;;;;;5.50;4.75;;;15.60;99.90;;;;;;4983250;28;20230;-72
2022/06/05 02:57:55;;;;;;;7.50;4.90;;;15.50;99.90;;;;;;5022954;28;20331;-72
2022/06/05 03:03:27;;;;;;;5.72;4.55;;;15.50;99.90;;;;;;5012610;28;20230;-72
2022/06/05 03:03:53;;;;;;;6.45;5.15;;;15.60;99.90;;;;;;5016939;28;20221;-70
2022/06/05 03:06:43;;;;;;;7.18;5.00;;;15.60;99.90;;;;;;5005125;28;20292;-71
2022/06/05 03:09:31;;;;;;;5.10;4.60;;;15.70;99.90;;;;;;5018715;28;20226;-71
2022/06/05 03:12:21;;;;;;;7.03;4.53;;;15.70;99.90;;;;;;5028599;28;20232;-71
2022/06/05 03:15:10;;;;;;;6.93;4.95;;;15.70;99.90;;;;;;5015850;28;20249;-72
2022/06/05 03:17:59;;;;;;;5.75;4.90;;;15.70;99.90;;;;;;5019575;28;20938;-71
2022/06/05 03:20:51;;;;;;;6.03;4.95;;;15.60;99.90;;;;;;5019986;28;20237;-71
2022/06/05 03:23:42;;;;;;;7.55;4.85;;;15.50;99.90;;;;;;5010761;28;20241;-71
2022/06/05 03:26:31;;;;;;;6.13;4.88;;;15.40;99.90;;;;;;5018417;28;20249;-72
2022/06/05 03:29:21;;;;;;;8.00;4.97;;;15.50;99.90;;;;;;5016495;28;20225;-72
2022/06/05 03:32:10;;;;;;;5.85;5.07;;;15.50;99.90;;;;;;5011283;28;20225;-72
2022/06/05 03:34:59;;;;;;;6.03;4.90;;;15.50;99.90;;;;;;5011811;28;20226;-72
2022/06/05 03:37:47;;;;;;;7.00;5.35;;;15.40;99.90;;;;;;5026808;28;20234;-71
2022/06/05 03:40:40;;;;;;;7.55;5.22;;;15.50;99.90;;;;;;5017125;28;20236;-72
2022/06/05 03:43:28;;;;;;;7.93;4.65;;;15.50;99.90;;;;;;5026400;28;20243;-71
2022/06/05 03:46:19;;;;;;;6.70;5.10;;;15.70;99.90;;;;;;5020564;28;20221;-72
2022/06/05 03:49:08;;;;;;;6.95;4.90;;;15.70;99.90;;;;;;5026345;28;20209;-71
2022/06/05 03:51:56;;;;;;;5.72;4.90;;;15.60;99.90;;;;;;5031543;28;20810;-72
2022/06/05 03:54:45;;;;;;;8.00;5.03;;;15.50;99.90;;;;;;5021565;28;20225;-71
2022/06/05 03:57:34;;;;;;;6.15;5.20;;;15.40;99.90;;;;;;5020549;28;20294;-72
2022/06/05 04:00:23;;;;;;;6.38;4.90;;;15.50;99.90;;;;;;5020704;28;20801;-71
2022/06/05 04:03:13;;;;;;;5.93;5.00;;;15.50;99.90;;;;;;5019043;28;20237;-72
2022/06/05 04:06:05;;;;;;;6.82;5.03;;;15.50;99.90;;;;;;5014447;28;20679;-72
2022/06/05 04:08:53;;;;;;;6.85;5.25;;;15.60;99.90;;;;;;5018068;28;20765;-70
2022/06/05 04:11:42;;;;;;;6.82;5.68;;;15.40;99.90;;;;;;5022794;28;20221;-70
2022/06/05 04:14:30;;;;;;;7.22;5.25;;;15.20;99.90;;;;;;5018982;28;20237;-70
2022/06/05 04:17:19;;;;;;;7.00;5.57;;;15.20;99.90;;;;;;5023301;28;20214;-70
2022/06/05 04:20:11;;;;;;;6.88;5.38;;;15.50;99.90;;;;;;5022971;28;20229;-70
2022/06/05 04:23:00;;;;;;;6.82;5.72;;;15.30;99.90;;;;;;5022022;28;20236;-71
2022/06/05 04:25:49;;;;;;;7.22;5.65;;;15.50;99.90;;;;;;5026636;28;20240;-72
2022/06/05 04:28:38;;;;;;;10.25;5.72;;;15.40;99.90;;;;;;5025566;28;20228;-70
2022/06/05 04:31:28;;;;;;;7.90;5.85;;;15.70;99.90;;;;;;5021246;28;20222;-72
2022/06/05 04:34:20;;;;;;;7.07;5.93;;;15.50;99.90;;;;;;5034784;28;20305;-73
2022/06/05 04:37:10;;;;;;;6.57;5.47;;;15.50;99.90;;;;;;5036071;28;20232;-71
2022/06/05 04:39:58;;;;;;;6.35;5.75;;;15.40;99.90;;;;;;5024452;28;20249;-71
2022/06/05 04:42:47;;;;;;;6.57;5.28;;;15.50;99.90;;;;;;5013780;28;20244;-71
2022/06/05 04:45:35;;;;;;;8.10;6.18;;;15.50;99.90;;;;;;5032208;28;20234;-71
2022/06/05 04:48:24;;;;;;;9.15;5.63;;;15.80;99.90;;;;;;5018641;28;20259;-73
2022/06/05 04:51:13;;;;;;;10.07;6.07;;;15.50;99.90;;;;;;5022305;28;20209;-70
2022/06/05 04:54:04;;;;;;;6.82;5.72;;;15.60;99.90;;;;;;5021150;28;20592;-72
2022/06/05 04:56:53;;;;;;;7.35;5.43;;;15.80;99.90;;;;;;5018453;28;20266;-70
2022/06/05 04:59:42;;;;;;;9.85;5.72;;;15.90;99.90;;;;;;5018961;28;20229;-70
2022/06/05 05:02:30;;;;;;;7.03;5.53;;;15.90;99.90;;;;;;5015474;28;20229;-71
2022/06/05 05:05:19;;;;;;;6.57;5.68;;;15.70;99.90;;;;;;5035187;28;20225;-71
2022/06/05 05:08:09;;;;;;;6.97;5.57;;;16.10;99.90;;;;;;5022340;28;20227;-70
2022/06/05 05:10:59;;;;;;;6.22;5.43;;;16.10;99.90;;;;;;5021800;28;20232;-72
2022/06/05 05:13:47;;;;;;;6.47;5.40;;;16.20;99.90;;;;;;5020892;28;20236;-72
2022/06/05 05:16:36;;;;;;;7.47;5.47;;;16.10;99.90;;;;;;5019605;28;20244;-71
2022/06/05 05:19:27;;;;;;;6.13;4.88;;;16.20;99.90;;;;;;5033020;28;20218;-71
2022/06/05 05:22:16;;;;;;;6.97;5.30;;;16.40;99.90;;;;;;5022906;28;20237;-71
2022/06/05 05:25:07;;;;;;;7.18;5.15;;;16.70;99.90;;;;;;5022751;28;20241;-70
2022/06/05 05:28:00;;;;;;;8.15;5.05;;;16.70;99.90;;;;;;5021730;28;20255;-71
2022/06/05 05:30:49;;;;;;;5.75;5.05;;;16.70;99.90;;;;;;5033594;28;20366;-71
2022/06/05 05:33:39;;;;;;;5.18;4.68;;;16.50;99.90;;;;;;5008814;28;20649;-72
2022/06/05 05:36:29;;;;;;;5.40;4.60;;;16.40;99.90;;;;;;4987651;28;20538;-73
2022/06/05 05:42:24;;;;;;;5.72;4.47;;;16.70;99.90;;;;;;5000505;28;20811;-73
2022/06/05 05:45:16;;;;;;;6.25;4.57;;;16.70;99.90;;;;;;4996301;28;20768;-73
2022/06/05 05:48:05;;;;;;;5.65;4.80;;;17.00;99.90;;;;;;4984407;28;20241;-73
2022/06/05 05:50:54;;;;;;;4.63;4.22;;;16.80;99.90;;;;;;4984066;28;21554;-73
2022/06/05 05:53:43;;;;;;;4.57;4.13;;;17.10;99.90;;;;;;4996337;28;20694;-72
2022/06/05 05:56:32;;;;;;;5.03;3.70;;;17.10;99.90;;;;;;4985576;28;20531;-71
2022/06/05 05:59:21;;;;;;;5.00;4.10;;;17.00;99.90;;;;;;4985355;28;20376;-72
2022/06/05 06:02:16;;;;;;;4.95;4.20;;;17.10;99.90;;;;;;4986896;28;20221;-71
2022/06/05 06:05:06;;;;;;;5.70;4.13;;;17.30;99.90;;;;;;4984924;28;20470;-72
2022/06/05 06:07:55;;;;;;;4.10;3.70;;;17.40;99.90;;;;;;4986589;28;21432;-71
2022/06/05 06:10:43;;;;;;;5.07;3.50;;;17.60;98.00;;;;;;4972513;28;20649;-73
2022/06/05 06:13:32;;;;;;;3.83;3.42;;;17.30;95.80;;;;;;4985325;28;20222;-75
2022/06/05 06:16:20;;;;;;;4.88;3.78;;;17.40;96.60;;;;;;4999207;28;20218;-72
2022/06/05 06:19:10;;;;;;;4.32;3.70;;;17.80;96.30;;;;;;5002563;28;20234;-72
2022/06/05 06:21:59;;;;;;;4.55;4.15;;;19.10;94.40;;;;;;5003451;28;20222;-72
2022/06/05 06:24:48;;;;;;;3.78;3.25;;;18.60;92.90;;;;;;5002789;28;20240;-71
2022/06/05 06:27:37;;;;;;;4.00;3.60;;;18.60;91.10;;;;;;4986078;28;20839;-73
2022/06/05 06:30:36;;;;;;;4.70;3.60;;;18.60;92.10;;;;;;4988192;28;20230;-72
2022/06/05 06:33:28;;;;;;;5.88;3.83;;;18.80;92.50;;;;;;5000733;28;20242;-71
2022/06/05 06:36:19;;;;;;;4.00;3.60;;;18.90;92.70;;;;;;4998591;28;20305;-72
2022/06/05 06:39:29;;;;;;;4.93;3.80;;;19.00;92.10;;;;;;4982024;28;20226;-71
2022/06/05 06:42:17;;;;;;;5.43;3.60;;;18.60;91.20;;;;;;4999369;28;20280;-72
2022/06/05 06:45:10;;;;;;;5.05;3.50;;;18.80;91.00;;;;;;4998629;28;20978;-72
2022/06/05 06:47:59;;;;;;;4.50;3.70;;;19.30;90.20;;;;;;4986560;28;20720;-71
2022/06/05 06:50:52;;;;;;;5.47;3.63;;;19.30;90.70;;;;;;4999575;28;20219;-72
2022/06/05 06:53:45;;;;;;;4.97;3.42;;;19.50;91.10;;;;;;4983929;28;20222;-73
2022/06/05 06:56:39;;;;;;;6.85;4.05;;;19.30;90.00;;;;;;4998940;28;20226;-73
2022/06/05 06:59:29;;;;;;;3.90;3.53;;;19.10;91.20;;;;;;4984490;28;20225;-71
2022/06/05 07:02:17;;;;;;;4.65;3.92;;;19.40;91.00;;;;;;5000721;28;21055;-72
2022/06/05 07:05:06;;;;;;;7.15;3.72;;;19.50;91.20;;;;;;4997758;28;20650;-72
2022/06/05 07:07:55;;;;;;;5.13;3.67;;;19.60;89.80;;;;;;4985549;28;20777;-71
2022/06/05 07:10:45;;;;;;;5.47;3.67;;;19.90;90.20;;;;;;4998374;28;20229;-72
2022/06/05 07:13:34;;;;;;;7.07;4.03;;;20.00;90.10;;;;;;4998376;28;20272;-72
2022/06/05 07:16:22;;;;;;;4.20;3.80;;;20.30;90.40;;;;;;4983585;28;20324;-74
2022/06/05 07:19:11;;;;;;;5.07;3.80;;;20.20;89.90;;;;;;5002273;28;20222;-73
2022/06/05 07:21:59;;;;;;;5.80;3.95;;;20.10;90.00;;;;;;5003260;28;20277;-72
2022/06/05 07:24:52;;;;;;;5.70;4.00;;;20.50;90.30;;;;;;5001858;28;20230;-73
2022/06/05 07:27:42;;;;;;;4.55;4.13;;;21.10;87.70;;;;;;4978287;28;20233;-73
2022/06/05 07:30:34;;;;;;;5.60;4.30;;;21.50;86.00;;;;;;5001259;28;20289;-73
2022/06/05 07:33:23;;;;;;;5.20;4.05;;;22.20;84.30;;;;;;4990752;28;20233;-73
2022/06/05 07:36:14;;;;;;;5.03;4.10;;;23.40;82.50;;;;;;5021738;28;20217;-73
2022/06/05 07:39:03;;;;;;;6.28;4.47;;;24.20;77.30;;;;;;5023286;28;20555;-71
2022/06/05 07:41:52;;;;;;;5.72;4.47;;;25.10;75.20;;;;;;5020074;28;20688;-72
2022/06/05 07:44:46;;;;;;;5.80;4.43;;;25.80;73.50;;;;;;5019812;28;20573;-72
2022/06/05 07:47:35;;;;;;;6.50;4.43;;;26.10;70.90;;;;;;5020909;28;20229;-74
2022/06/05 07:50:25;;;;;;;5.03;4.30;;;26.60;69.50;;;;;;5022916;28;20214;-75
2022/06/05 07:56:19;;;;;;;5.57;4.22;;;26.40;69.50;;;;;;5007711;28;20225;-72
2022/06/05 07:59:08;;;;;;;5.10;4.60;;;27.40;65.60;;;;;;5007317;28;20213;-72
2022/06/05 08:02:20;;;;;;;5.18;4.22;;;27.50;64.00;;;;;;5018415;28;20388;-73
2022/06/05 08:05:10;;;;;;;4.57;4.13;;;27.10;65.00;;;;;;5023239;28;20222;-72
2022/06/05 08:07:59;;;;;;;4.38;3.97;;;27.10;65.50;;;;;;5022860;28;20237;-71
2022/06/05 08:10:48;;;;;;;5.07;4.60;;;27.30;63.70;;;;;;5008029;28;20735;-71
2022/06/05 08:13:37;;;;;;;7.93;4.40;;;28.20;63.20;;;;;;5023784;28;20569;-71
2022/06/05 08:16:27;;;;;;;5.30;3.67;;;28.50;63.90;;;;;;5008179;28;20234;-71
2022/06/05 08:19:20;;;;;;;4.28;3.88;;;28.80;61.10;;;;;;5021900;28;20218;-74
2022/06/05 08:22:11;;;;;;;4.50;3.83;;;29.50;59.20;;;;;;5006094;28;20588;-71
2022/06/05 08:25:00;;;;;;;5.65;4.38;;;31.40;58.50;;;;;;5003851;28;20218;-71
2022/06/05 08:27:50;;;;;;;5.15;4.35;;;32.50;56.20;;;;;;5004369;28;20224;-72
2022/06/05 08:30:39;;;;;;;6.13;4.10;;;31.70;55.00;;;;;;5024761;28;20236;-74
2022/06/05 08:33:27;;;;;;;3.80;3.40;;;31.00;56.50;;;;;;5013892;28;20275;-75
2022/06/05 08:36:17;;;;;;;4.25;3.70;;;32.20;55.10;;;;;;4997185;28;20408;-76
2022/06/05 08:42:21;;;;;;;3.90;3.60;;;31.30;55.20;;;;;;4999069;28;20364;-74
2022/06/05 08:45:16;;;;;;;4.97;3.50;;;34.00;52.60;;;;;;4984451;28;20217;-72
2022/06/05 08:48:11;;;;;;;4.45;3.70;;;33.60;51.70;;;;;;4982064;28;20221;-72
2022/06/05 08:51:08;;;;;;;4.25;3.67;;;34.60;50.60;;;;;;5000403;28;20251;-71
2022/06/05 08:54:02;;;;;;;3.50;3.17;;;36.30;48.00;;;;;;4998708;28;20573;-71
2022/06/05 08:56:55;;;;;;;4.32;3.30;;;37.00;46.30;;;;;;4999030;28;20256;-72
2022/06/05 08:59:50;;;;;;;5.10;3.40;;;37.10;45.10;;;;;;4995076;28;20236;-72
2022/06/05 09:02:48;;;;;;;4.00;3.50;;;37.20;45.20;;;;;;5006202;28;20276;-72
2022/06/05 09:05:40;;;;;;;6.47;3.20;;;37.50;44.00;;;;;;5002881;28;20742;-72
2022/06/05 09:08:33;;;;;;;4.47;3.10;;;38.20;43.10;;;;;;5002315;28;20328;-71
2022/06/05 09:11:33;;;;;;;4.20;3.47;;;33.70;42.70;;;;;;5010726;28;20359;-72
2022/06/05 09:14:32;;;;;;;6.15;3.33;;;33.20;45.20;;;;;;5003543;28;20252;-71
2022/06/05 09:17:22;;;;;;;4.85;3.40;;;34.50;45.30;;;;;;5005791;28;20229;-71
2022/06/05 09:20:14;;;;;;;4.15;2.72;;;36.20;43.90;;;;;;5003667;28;20221;-72
2022/06/05 09:23:10;;;;;;;3.95;2.60;;;35.70;41.70;;;;;;4987960;28;20309;-71
2022/06/05 09:26:06;;;;;;;3.10;2.67;;;35.90;42.00;;;;;;5004672;28;20648;-72
2022/06/05 09:29:05;;;;;;;3.45;3.15;;;37.60;40.80;;;;;;5003957;28;20240;-72
2022/06/05 09:32:20;;;;;;;4.93;3.08;;;38.50;40.30;;;;;;4980435;28;20236;-72
2022/06/05 09:35:19;;;;;;;5.13;2.70;;;38.00;40.60;;;;;;5006119;28;20220;-72
2022/06/05 13:19:20;;;;;;;3.58;3.17;;;28.30;45.60;;;;;;5103425;27;20582;-76
2022/06/05 13:22:14;;;;;;;3.10;2.80;;;27.70;45.90;;;;;;5091406;28;20214;-76
2022/06/05 16:39:01;;;;;;;4.35;2.80;;;24.40;54.50;;;;;;5041246;27;20605;-70
2022/06/05 16:41:58;;;;;;;4.40;2.90;;;24.30;54.80;;;;;;5020802;28;20229;-71
2022/06/05 16:44:59;;;;;;;2.92;2.53;;;24.30;54.40;;;;;;5033684;28;20636;-70
2022/06/05 16:47:53;;;;;;;3.00;2.65;;;24.30;54.80;;;;;;5034786;28;20239;-68
2022/06/05 16:50:53;;;;;;;4.13;2.60;;;24.40;54.70;;;;;;5045884;28;20224;-68
2022/06/05 16:53:47;;;;;;;4.68;3.00;;;24.40;54.40;;;;;;5045625;28;20290;-70
2022/06/05 16:57:19;;;;;;;3.08;2.75;;;24.30;55.30;;;;;;5063141;28;20232;-70
2022/06/05 17:00:23;;;;;;;2.75;2.38;;;24.10;55.40;;;;;;5052558;28;20220;-69
2022/06/05 17:03:27;;;;;;;3.72;2.80;;;24.10;55.50;;;;;;5039720;28;20232;-70
2022/06/05 17:06:42;;;;;;;3.75;2.83;;;24.00;56.10;;;;;;5053361;28;20402;-70
2022/06/05 17:09:33;;;;;;;3.15;2.83;;;23.90;56.50;;;;;;5016571;28;20259;-71
2022/06/05 17:12:49;;;;;;;3.10;2.80;;;23.90;56.40;;;;;;5038633;28;20224;-70
2022/06/05 17:15:47;;;;;;;2.75;2.55;;;23.70;56.80;;;;;;5071770;28;20711;-68
2022/06/05 17:18:39;;;;;;;3.38;3.08;;;23.60;57.30;;;;;;5062159;28;20219;-69
2022/06/05 17:21:43;;;;;;;4.18;3.03;;;23.70;57.40;;;;;;5059304;28;20333;-68
2022/06/05 17:25:10;;;;;;;4.50;3.25;;;23.70;58.20;;;;;;5053572;28;20224;-69
2022/06/05 17:28:15;;;;;;;3.70;3.30;;;23.80;59.00;;;;;;5037998;28;20220;-69
2022/06/05 17:31:24;;;;;;;5.40;3.20;;;24.00;58.90;;;;;;5049567;28;20695;-69
2022/06/05 17:34:23;;;;;;;4.75;3.40;;;24.10;59.00;;;;;;5058878;28;20698;-72
2022/06/05 17:37:25;;;;;;;5.38;3.35;;;23.90;59.20;;;;;;5060310;28;20242;-70
2022/06/05 17:40:39;;;;;;;6.05;3.28;;;23.80;59.20;;;;;;5058626;28;20773;-71
2022/06/05 17:43:42;;;;;;;3.63;3.33;;;23.80;59.80;;;;;;5063665;28;20226;-73
2022/06/05 17:46:40;;;;;;;5.95;3.63;;;23.80;59.90;;;;;;5058675;28;20346;-73
2022/06/05 17:49:41;;;;;;;4.05;3.35;;;23.70;60.10;;;;;;5053615;28;20228;-72
2022/06/05 17:52:30;;;;;;;4.20;3.40;;;23.60;60.40;;;;;;5043652;28;20586;-73
2022/06/05 17:55:22;;;;;;;3.45;3.10;;;23.60;60.50;;;;;;5057286;28;20225;-71
2022/06/05 17:58:16;;;;;;;4.20;3.22;;;23.50;61.00;;;;;;5056897;28;20265;-69
2022/06/05 18:01:08;;;;;;;4.85;3.60;;;23.60;61.20;;;;;;5028493;28;20229;-69
2022/06/05 18:03:59;;;;;;;4.95;3.47;;;23.70;61.30;;;;;;5056445;28;20778;-69
2022/06/05 18:06:48;;;;;;;4.18;3.47;;;23.60;61.70;;;;;;5041760;28;20256;-71
2022/06/05 18:09:40;;;;;;;4.25;3.50;;;23.50;61.60;;;;;;5040897;28;20320;-71
2022/06/05 18:12:31;;;;;;;4.03;3.60;;;23.60;62.10;;;;;;5046501;28;21120;-70
2022/06/05 18:15:25;;;;;;;3.63;3.30;;;23.50;62.60;;;;;;5044251;28;20703;-70
2022/06/05 18:18:19;;;;;;;4.05;3.50;;;23.40;62.50;;;;;;5057080;28;20258;-70
2022/06/05 18:21:09;;;;;;;3.92;3.53;;;23.30;62.90;;;;;;5046099;28;20212;-70
2022/06/05 18:23:58;;;;;;;4.93;3.60;;;23.10;63.20;;;;;;5041094;28;20231;-73
2022/06/05 18:27:07;;;;;;;6.32;4.18;;;23.10;63.50;;;;;;5030681;28;20240;-72
2022/06/05 18:29:59;;;;;;;7.85;4.25;;;23.00;63.90;;;;;;5033849;28;20242;-72
2022/06/05 18:32:55;;;;;;;6.22;4.13;;;23.10;64.10;;;;;;5045963;28;20946;-73
2022/06/05 18:39:04;;;;;;;4.75;4.22;;;23.00;64.30;;;;;;4967975;28;20385;-75
2022/06/05 18:41:53;;;;;;;4.50;4.10;;;22.90;65.00;;;;;;5035639;28;21013;-73
2022/06/05 18:44:44;;;;;;;5.22;4.57;;;23.00;64.40;;;;;;5060073;28;20228;-70
2022/06/05 18:47:38;;;;;;;4.45;4.05;;;22.70;67.40;;;;;;5035672;28;20229;-71
2022/06/05 18:50:29;;;;;;;5.85;4.35;;;22.80;67.00;;;;;;5033107;28;20213;-71
2022/06/05 18:53:23;;;;;;;5.20;4.38;;;22.70;68.20;;;;;;5032403;28;20218;-70
2022/06/05 18:56:27;;;;;;;8.48;4.10;;;22.70;67.70;;;;;;5024868;28;20237;-70
2022/06/05 18:59:28;;;;;;;5.38;3.90;;;22.80;67.00;;;;;;5028107;28;20251;-70
2022/06/05 19:02:20;;;;;;;4.35;3.90;;;22.60;67.50;;;;;;5038360;28;20221;-70
2022/06/05 19:05:26;;;;;;;4.63;4.10;;;22.50;69.00;;;;;;5046329;28;20220;-69
2022/06/05 19:08:27;;;;;;;6.03;4.60;;;22.50;69.30;;;;;;5040607;28;20318;-71
2022/06/05 19:11:20;;;;;;;7.90;4.22;;;22.40;69.00;;;;;;5042819;28;20719;-71
2022/06/05 19:14:14;;;;;;;5.15;4.30;;;22.50;69.10;;;;;;5025055;28;20222;-72
2022/06/05 19:17:10;;;;;;;6.95;4.50;;;22.40;69.20;;;;;;5033571;28;20595;-72
2022/06/05 19:20:05;;;;;;;7.03;4.15;;;22.40;69.60;;;;;;5047032;28;20761;-73
2022/06/05 19:22:57;;;;;;;7.75;4.15;;;22.30;71.20;;;;;;5039436;28;20236;-71
2022/06/05 19:25:48;;;;;;;5.88;4.20;;;22.30;71.10;;;;;;5036799;28;20221;-73
2022/06/05 19:28:46;;;;;;;5.28;4.35;;;22.10;72.40;;;;;;5027657;28;20221;-72
2022/06/05 19:31:41;;;;;;;5.10;4.60;;;22.00;73.10;;;;;;5044249;28;20216;-72
2022/06/05 19:34:32;;;;;;;8.43;4.40;;;22.00;72.30;;;;;;5045288;28;20540;-72
2022/06/05 19:40:36;;;;;;;12.15;5.60;;;22.00;74.70;;;;;;5023477;28;20270;-71
2022/06/05 19:43:32;;;;;;;8.90;4.95;;;21.70;73.60;;;;;;5035290;28;20582;-72
2022/06/05 19:46:21;;;;;;;7.95;6.00;;;21.80;79.40;;;;;;5039931;28;20552;-71
2022/06/05 19:49:18;;;;;;;6.32;5.55;;;21.70;79.20;;;;;;5044334;28;20857;-69
2022/06/05 19:52:17;;;;;;;10.38;5.10;;;21.70;76.40;;;;;;5046208;28;20232;-71
2022/06/05 19:55:12;;;;;;;5.97;5.20;;;21.60;79.20;;;;;;5042334;28;20651;-69
2022/06/05 19:58:03;;;;;;;6.55;5.32;;;21.60;79.30;;;;;;5032224;28;20233;-71
2022/06/05 20:01:18;;;;;;;7.57;4.60;;;21.50;77.50;;;;;;5035264;28;20223;-70
2022/06/05 20:04:23;;;;;;;9.57;5.32;;;21.50;79.00;;;;;;5035086;28;20726;-72
2022/06/05 20:07:33;;;;;;;5.95;4.82;;;21.30;76.60;;;;;;5033144;28;20228;-70
2022/06/05 20:10:28;;;;;;;12.52;5.28;;;21.30;75.80;;;;;;5024555;28;20221;-71
2022/06/05 20:13:20;;;;;;;6.88;5.28;;;21.30;76.00;;;;;;5020178;28;21196;-70
2022/06/05 20:16:18;;;;;;;7.60;5.15;;;21.20;76.30;;;;;;5036575;28;20282;-71
2022/06/05 20:19:11;;;;;;;7.90;5.45;;;21.20;78.60;;;;;;5037407;28;20251;-71
2022/06/05 20:22:04;;;;;;;9.60;5.70;;;21.30;79.50;;;;;;5017531;28;20241;-70
2022/06/05 20:24:55;;;;;;;8.20;4.90;;;21.20;77.60;;;;;;5022889;28;20256;-71
2022/06/05 20:27:51;;;;;;;7.72;5.40;;;21.10;78.00;;;;;;5045419;28;20224;-72
2022/06/05 20:30:49;;;;;;;8.88;5.57;;;21.10;77.60;;;;;;5034115;28;20260;-71
2022/06/05 20:33:45;;;;;;;9.05;5.53;;;21.00;78.00;;;;;;5032383;28;20282;-70
2022/06/05 20:36:48;;;;;;;8.50;5.35;;;21.10;81.70;;;;;;5032345;28;20235;-70
2022/06/05 20:39:40;;;;;;;8.88;5.93;;;20.90;78.60;;;;;;5047149;28;20213;-69
2022/06/05 20:42:34;;;;;;;9.48;5.90;;;20.80;81.30;;;;;;5035868;28;20698;-72
2022/06/05 20:45:30;;;;;;;8.85;5.80;;;20.70;80.90;;;;;;5019220;28;20236;-71
2022/06/05 20:48:31;;;;;;;7.43;6.03;;;20.70;79.80;;;;;;5041861;28;20587;-71
2022/06/05 20:51:21;;;;;;;13.80;6.22;;;20.60;80.20;;;;;;5024571;28;20239;-72
2022/06/05 20:54:11;;;;;;;8.18;5.80;;;20.40;81.00;;;;;;5042245;28;20220;-71
2022/06/05 20:57:02;;;;;;;6.78;5.72;;;20.50;82.80;;;;;;5040257;28;20287;-71
2022/06/05 20:59:50;;;;;;;7.18;5.97;;;20.30;82.40;;;;;;5039517;28;20288;-72
2022/06/05 21:08:54;;;;;;;8.05;5.63;;;20.00;84.00;;;;;;5040101;28;20225;-71
2022/06/05 21:18:14;;;;;;;8.15;6.20;;;19.90;84.80;;;;;;4998370;28;20217;-71
2022/06/05 21:21:03;;;;;;;8.23;6.30;;;19.90;85.10;;;;;;5037352;28;20240;-70
2022/06/05 21:23:53;;;;;;;9.35;6.75;;;19.90;85.90;;;;;;5022872;28;20243;-69
2022/06/05 21:26:42;;;;;;;10.88;6.45;;;20.00;85.30;;;;;;5044538;28;20217;-70
2022/06/05 21:29:37;;;;;;;7.43;6.15;;;20.00;86.90;;;;;;5044593;28;20346;-70
2022/06/05 21:32:41;;;;;;;8.68;5.97;;;19.90;90.00;;;;;;5055066;28;20281;-70
2022/06/05 21:35:33;;;;;;;8.07;5.63;;;19.90;88.70;;;;;;5045248;28;20262;-70
2022/06/05 21:38:24;;;;;;;6.43;5.78;;;19.80;87.30;;;;;;5030231;28;20251;-71
2022/06/05 21:41:34;;;;;;;6.45;5.50;;;19.70;87.40;;;;;;5025334;28;20229;-71
2022/06/05 21:44:27;;;;;;;6.68;5.75;;;19.70;87.40;;;;;;5042829;28;20220;-73
2022/06/05 21:47:21;;;;;;;7.60;6.07;;;19.50;88.20;;;;;;5028847;28;20740;-70
2022/06/05 21:50:20;;;;;;;7.47;6.20;;;19.50;89.00;;;;;;5045944;28;20217;-71
2022/06/05 21:53:11;;;;;;;7.22;5.80;;;19.50;91.20;;;;;;5032467;28;20216;-70
2022/06/05 21:56:05;;;;;;;11.55;6.15;;;19.40;90.10;;;;;;5046534;28;20247;-70
2022/06/05 21:58:56;;;;;;;9.88;5.47;;;19.60;90.40;;;;;;5044019;28;20221;-72
2022/06/05 22:01:45;;;;;;;6.45;5.82;;;19.60;90.10;;;;;;5038635;28;20308;-70
2022/06/05 22:04:35;;;;;;;9.85;6.30;;;19.50;90.00;;;;;;5034989;28;20222;-70
2022/06/05 22:07:24;;;;;;;8.77;5.75;;;19.50;90.80;;;;;;5031449;28;20225;-69
2022/06/05 22:10:13;;;;;;;7.57;5.97;;;19.50;91.20;;;;;;5046582;28;20243;-68
2022/06/05 22:13:01;;;;;;;8.32;6.00;;;19.50;91.30;;;;;;5038418;28;20247;-71
2022/06/05 22:15:51;;;;;;;7.97;5.70;;;19.50;91.10;;;;;;5046679;28;20225;-70
2022/06/05 22:18:40;;;;;;;8.07;6.10;;;19.50;90.70;;;;;;5041841;28;20599;-70
2022/06/05 22:21:31;;;;;;;7.20;5.85;;;19.50;91.00;;;;;;5025810;28;20239;-69
2022/06/05 22:24:21;;;;;;;8.48;6.35;;;19.50;91.90;;;;;;5024052;28;20220;-69
2022/06/05 22:27:24;;;;;;;8.35;6.03;;;19.30;92.40;;;;;;5053601;28;20216;-69